Time;durP1;ratioP1;P1;durP2;ratioP2;P2;SDS_P1;SDS_P2;PMS_P1;PMS_P2;Temp;Humidity;BMP_temperature;BMP_pressure;BME280_temperature;BME280_humidity;BME280_pressure;Samples;Min_cycle;Max_cycle;Signal;HPM_P1;HPM_P2
2021/09/06 00:01:24;;;;;;;56.20;49.38;;;;;;;22.06;65.17;101580.16;6057320;23;20013;-70
2021/09/06 00:03:49;;;;;;;56.13;49.00;;;;;;;22.07;65.13;101584.59;6055947;23;20003;-70
2021/09/06 00:06:15;;;;;;;55.35;48.83;;;;;;;22.08;65.06;101593.63;6031635;23;20009;-70
2021/09/06 00:08:41;;;;;;;54.17;48.28;;;;;;;22.08;64.96;101590.88;6057963;23;20014;-70
2021/09/06 00:11:11;;;;;;;53.72;47.40;;;;;;;22.07;65.09;101598.28;6056494;23;20065;-70
2021/09/06 00:13:38;;;;;;;49.92;44.53;;;;;;;22.07;64.89;101602.91;6032201;23;20444;-70
2021/09/06 00:16:06;;;;;;;51.85;45.72;;;;;;;22.07;64.97;101598.28;6029897;23;20011;-70
2021/09/06 00:18:32;;;;;;;52.75;47.08;;;;;;;22.08;64.92;101604.59;6057866;23;20007;-70
2021/09/06 00:20:58;;;;;;;52.83;47.15;;;;;;;22.07;64.97;101602.91;6056370;23;20010;-70
2021/09/06 00:23:25;;;;;;;52.65;46.28;;;;;;;22.07;65.10;101600.16;6031890;23;20646;-70
2021/09/06 00:25:51;;;;;;;52.75;46.42;;;;;;;22.06;65.02;101596.59;6056427;23;20602;-70
2021/09/06 00:28:17;;;;;;;49.65;44.00;;;;;;;22.06;65.21;101593.00;6032228;23;20836;-70
2021/09/06 00:30:42;;;;;;;48.55;43.00;;;;;;;22.04;65.03;101587.75;6031711;23;20011;-70
2021/09/06 00:33:09;;;;;;;47.20;42.03;;;;;;;22.06;65.08;101593.00;6030460;23;20075;-70
2021/09/06 00:35:35;;;;;;;48.78;43.45;;;;;;;22.03;65.00;101585.28;6030675;23;20078;-70
2021/09/06 00:38:01;;;;;;;52.08;42.97;;;;;;;22.06;64.87;101587.53;6031473;23;20048;-70
2021/09/06 00:40:27;;;;;;;48.15;43.05;;;;;;;22.05;65.07;101585.88;6029999;23;20470;-70
2021/09/06 00:42:52;;;;;;;46.42;40.88;;;;;;;22.04;64.92;101581.44;6030321;23;20033;-70
2021/09/06 00:45:18;;;;;;;45.30;40.65;;;;;;;22.06;64.76;101587.53;6031298;23;20385;-71
2021/09/06 00:47:44;;;;;;;43.53;38.83;;;;;;;22.05;64.63;101580.41;6056286;23;20019;-71
2021/09/06 00:50:13;;;;;;;45.22;40.47;;;;;;;22.04;64.82;101575.97;6032555;23;20003;-70
2021/09/06 00:52:44;;;;;;;45.35;39.75;;;;;;;22.04;64.75;101570.50;6031061;23;20022;-70
2021/09/06 00:55:11;;;;;;;42.55;37.97;;;;;;;22.05;64.75;101574.94;6029583;23;20007;-71
2021/09/06 00:57:37;;;;;;;41.03;36.58;;;;;;;22.01;64.71;101569.06;6006918;23;20361;-70
2021/09/06 01:00:08;;;;;;;40.53;36.00;;;;;;;22.04;64.84;101573.25;6056229;23;20425;-70
2021/09/06 01:02:34;;;;;;;41.63;37.30;;;;;;;22.03;64.70;101579.78;6031507;23;20081;-70
2021/09/06 01:04:59;;;;;;;42.80;36.55;;;;;;;22.04;64.84;101581.44;6030267;23;20086;-71
2021/09/06 01:07:25;;;;;;;40.35;36.15;;;;;;;22.04;64.89;101575.97;6055980;23;20015;-70
2021/09/06 01:09:51;;;;;;;39.35;35.13;;;;;;;22.04;64.72;101584.19;6055750;23;20007;-70
2021/09/06 01:12:16;;;;;;;39.47;35.25;;;;;;;22.03;64.78;101577.06;6056057;23;20010;-70
2021/09/06 01:14:42;;;;;;;39.38;35.10;;;;;;;22.02;64.95;101578.97;6031195;23;20341;-70
2021/09/06 01:17:08;;;;;;;38.83;33.85;;;;;;;22.02;64.80;101576.22;6057503;23;20070;-71
2021/09/06 01:19:34;;;;;;;40.35;36.00;;;;;;;22.03;64.63;101575.16;6057068;23;20018;-71
2021/09/06 01:22:00;;;;;;;37.20;32.47;;;;;;;22.03;64.81;101575.16;6007190;23;20089;-70
2021/09/06 01:24:26;;;;;;;38.33;34.28;;;;;;;22.03;64.37;101580.63;6054852;23;20078;-72
2021/09/06 01:26:51;;;;;;;40.15;35.55;;;;;;;22.01;64.54;101570.97;6030873;23;20039;-70
2021/09/06 01:29:17;;;;;;;37.42;32.13;;;;;;;22.02;64.43;101568.00;6029720;23;20011;-72
2021/09/06 01:31:43;;;;;;;38.40;34.20;;;;;;;22.03;64.54;101579.78;6057186;23;20014;-72
2021/09/06 01:34:09;;;;;;;35.65;31.70;;;;;;;22.02;64.45;101578.13;6031118;23;20535;-72
2021/09/06 01:36:35;;;;;;;32.85;29.05;;;;;;;22.02;64.72;101572.66;6055664;23;20014;-72
2021/09/06 01:39:02;;;;;;;34.15;30.55;;;;;;;22.03;64.30;101574.31;6030537;23;20513;-72
2021/09/06 01:41:28;;;;;;;35.90;31.95;;;;;;;22.02;64.68;101570.75;6056765;23;20007;-72
2021/09/06 01:43:53;;;;;;;34.85;31.02;;;;;;;22.02;64.58;101573.50;6007845;23;20019;-72
2021/09/06 01:46:19;;;;;;;32.13;28.63;;;;;;;21.95;64.49;101564.53;6029778;23;20492;-71
2021/09/06 01:48:45;;;;;;;34.83;30.85;;;;;;;22.01;64.39;101566.31;6056567;23;20015;-72
2021/09/06 01:51:10;;;;;;;35.00;31.30;;;;;;;22.01;64.71;101569.06;6055810;23;20013;-72
2021/09/06 01:53:36;;;;;;;34.75;29.05;;;;;;;22.01;64.59;101562.75;6054351;23;20007;-71
2021/09/06 01:56:02;;;;;;;33.70;29.85;;;;;;;21.99;64.71;101563.00;6055814;23;20015;-71
2021/09/06 01:58:28;;;;;;;34.38;29.80;;;;;;;22.01;64.33;101560.00;6029457;23;20007;-72
2021/09/06 02:00:54;;;;;;;33.35;28.27;;;;;;;22.01;64.72;101560.84;6006481;23;20903;-71
2021/09/06 02:03:19;;;;;;;32.15;28.65;;;;;;;22.01;64.66;101560.84;6055824;23;20010;-71
2021/09/06 02:05:45;;;;;;;31.00;27.60;;;;;;;22.00;64.57;101558.34;6029154;23;20089;-72
2021/09/06 02:08:10;;;;;;;31.27;27.92;;;;;;;22.01;64.70;101560.00;6031262;23;20085;-72
2021/09/06 02:10:36;;;;;;;31.02;27.67;;;;;;;22.00;64.51;101570.13;6055025;23;20022;-72
2021/09/06 02:13:02;;;;;;;29.38;26.23;;;;;;;22.00;64.60;101566.56;6029933;23;20079;-72
2021/09/06 02:15:27;;;;;;;31.67;28.20;;;;;;;22.00;64.29;101574.78;6057005;23;20090;-71
2021/09/06 02:17:53;;;;;;;29.48;25.63;;;;;;;21.99;64.48;101573.97;6056241;23;20019;-72
2021/09/06 02:20:18;;;;;;;30.65;26.63;;;;;;;21.99;64.41;101567.63;6055647;23;20009;-72
2021/09/06 02:22:44;;;;;;;31.27;26.55;;;;;;;21.97;64.41;101564.31;6056202;23;20537;-71
2021/09/06 02:25:10;;;;;;;30.35;26.75;;;;;;;22.00;64.56;101578.34;6029791;23;20011;-72
2021/09/06 02:27:35;;;;;;;31.58;24.60;;;;;;;22.00;64.60;101588.47;6030224;23;20508;-71
2021/09/06 02:30:01;;;;;;;29.35;25.40;;;;;;;21.98;64.50;101579.66;6032422;23;20007;-71
2021/09/06 02:32:27;;;;;;;29.60;25.52;;;;;;;21.99;64.45;101573.09;6054859;23;20014;-72
2021/09/06 02:34:52;;;;;;;28.67;24.15;;;;;;;21.99;64.09;101573.97;6055390;23;20010;-72
2021/09/06 02:37:18;;;;;;;28.83;24.13;;;;;;;21.97;64.21;101575.25;6055637;23;20035;-72
2021/09/06 02:39:43;;;;;;;26.83;23.23;;;;;;;21.99;64.38;101573.09;6030016;23;20003;-72
2021/09/06 02:42:09;;;;;;;26.88;23.92;;;;;;;21.99;64.06;101575.84;6029277;23;20011;-72
2021/09/06 02:44:35;;;;;;;26.63;23.42;;;;;;;21.99;64.22;101584.91;6056017;23;20018;-71
2021/09/06 02:47:00;;;;;;;27.92;23.80;;;;;;;21.98;64.17;101580.47;6030396;23;20368;-72
2021/09/06 02:49:26;;;;;;;27.85;22.88;;;;;;;21.99;64.24;101584.06;6056620;23;20014;-71
2021/09/06 02:51:52;;;;;;;29.10;23.85;;;;;;;21.97;64.05;101581.56;6006866;23;20007;-72
2021/09/06 02:54:17;;;;;;;24.63;20.88;;;;;;;21.99;64.09;101578.56;6055548;23;20102;-72
2021/09/06 02:56:43;;;;;;;28.23;23.48;;;;;;;21.97;64.22;101576.09;6031540;23;20014;-71
2021/09/06 02:59:09;;;;;;;24.73;22.13;;;;;;;21.94;64.05;101566.44;6055837;23;20006;-72
2021/09/06 03:01:35;;;;;;;26.15;22.33;;;;;;;21.98;63.82;101571.44;6054135;23;20018;-72
2021/09/06 03:04:00;;;;;;;25.85;21.50;;;;;;;21.98;64.23;101574.19;6055620;23;20006;-72
2021/09/06 03:06:26;;;;;;;25.70;21.88;;;;;;;21.98;64.02;101568.69;6056616;23;20081;-71
2021/09/06 03:08:52;;;;;;;24.45;21.13;;;;;;;21.98;64.21;101582.38;6057228;23;20007;-72
2021/09/06 03:11:24;;;;;;;24.85;20.35;;;;;;;21.97;64.32;101575.25;6032302;23;20790;-72
2021/09/06 03:13:54;;;;;;;25.25;21.23;;;;;;;21.94;64.19;101582.84;6056238;23;20018;-72
2021/09/06 03:16:21;;;;;;;23.10;20.60;;;;;;;21.95;64.11;101580.94;6057337;23;20142;-71
2021/09/06 03:18:47;;;;;;;24.30;20.77;;;;;;;21.96;63.85;101577.13;6033017;23;20333;-71
2021/09/06 03:21:13;;;;;;;23.77;19.92;;;;;;;21.94;64.12;101574.66;6032303;23;20065;-72
2021/09/06 03:23:39;;;;;;;25.17;21.65;;;;;;;21.97;64.05;101589.78;6056813;23;20450;-72
2021/09/06 03:26:04;;;;;;;23.10;20.60;;;;;;;21.94;64.22;101585.59;6030649;23;20042;-72
2021/09/06 03:28:30;;;;;;;24.45;20.73;;;;;;;21.97;64.26;101597.16;6032388;23;20401;-71
2021/09/06 03:30:55;;;;;;;26.20;20.40;;;;;;;21.97;64.20;101594.44;6031247;23;20381;-71
2021/09/06 03:33:21;;;;;;;23.75;20.63;;;;;;;21.95;64.05;101587.25;6056183;23;20017;-72
2021/09/06 03:35:46;;;;;;;23.70;20.23;;;;;;;21.96;63.85;101590.81;6031914;23;20381;-71
2021/09/06 03:38:12;;;;;;;23.13;19.77;;;;;;;21.96;63.93;101593.56;6031835;23;20017;-72
2021/09/06 03:40:38;;;;;;;23.83;19.00;;;;;;;21.94;63.96;101587.50;6032614;23;20508;-72
2021/09/06 03:43:04;;;;;;;21.45;18.67;;;;;;;21.95;64.15;101590.00;6011501;23;20348;-72
2021/09/06 03:45:30;;;;;;;23.73;20.05;;;;;;;21.96;63.85;101593.56;6055620;23;20058;-72
2021/09/06 03:47:56;;;;;;;20.98;17.95;;;;;;;21.94;63.85;101582.84;6031477;23;20007;-72
2021/09/06 03:50:22;;;;;;;21.70;18.50;;;;;;;21.95;64.26;101594.63;6058769;23;20018;-72
2021/09/06 03:52:47;;;;;;;22.27;18.27;;;;;;;21.97;64.13;101597.16;6033277;23;20373;-72
2021/09/06 03:55:13;;;;;;;22.10;17.45;;;;;;;21.92;64.04;101590.47;6032624;23;20527;-72
2021/09/06 03:57:38;;;;;;;21.92;17.77;;;;;;;21.95;64.02;101597.38;6057055;23;19999;-72
2021/09/06 04:00:06;;;;;;;21.77;18.42;;;;;;;21.94;64.09;101585.59;6031830;23;20007;-72
2021/09/06 04:02:31;;;;;;;22.88;16.63;;;;;;;21.95;63.80;101586.44;6008566;23;20372;-72
2021/09/06 04:04:59;;;;;;;20.85;17.27;;;;;;;21.94;63.75;101582.03;6056887;23;20484;-72
2021/09/06 04:07:24;;;;;;;20.80;17.70;;;;;;;21.94;63.78;101590.25;6030421;23;20014;-71
2021/09/06 04:09:50;;;;;;;21.02;17.42;;;;;;;21.94;64.12;101591.06;6032674;23;20035;-72
2021/09/06 04:12:15;;;;;;;21.98;17.58;;;;;;;21.93;64.06;101581.16;6059646;23;20059;-72
2021/09/06 04:14:41;;;;;;;18.15;16.15;;;;;;;21.94;63.68;101582.84;6034665;23;20010;-72
2021/09/06 04:17:07;;;;;;;21.00;16.52;;;;;;;21.94;63.80;101588.34;6035412;23;20025;-71
2021/09/06 04:19:32;;;;;;;21.35;17.20;;;;;;;21.93;63.93;101586.66;6034262;23;20030;-72
2021/09/06 04:21:59;;;;;;;20.00;16.65;;;;;;;21.94;64.02;101579.28;6061135;23;20336;-72
2021/09/06 04:24:25;;;;;;;19.95;16.33;;;;;;;21.94;64.13;101579.28;6034757;23;20449;-71
2021/09/06 04:26:51;;;;;;;19.63;16.05;;;;;;;21.92;63.81;101570.47;6034467;23;20027;-72
2021/09/06 04:29:16;;;;;;;18.95;15.38;;;;;;;21.93;64.03;101575.69;6034232;23;20007;-72
2021/09/06 04:31:42;;;;;;;21.25;16.95;;;;;;;21.93;63.64;101575.69;6035974;23;20045;-72
2021/09/06 04:34:08;;;;;;;18.67;15.70;;;;;;;21.93;63.75;101578.44;6059035;23;20002;-72
2021/09/06 04:36:34;;;;;;;18.85;16.30;;;;;;;21.92;63.95;101574.03;6034736;23;20591;-72
2021/09/06 04:38:59;;;;;;;18.70;16.58;;;;;;;21.91;63.74;101580.59;6060149;23;20002;-71
2021/09/06 04:41:25;;;;;;;19.45;15.98;;;;;;;21.90;63.54;101570.69;6060704;23;20018;-72
2021/09/06 04:43:50;;;;;;;19.95;15.88;;;;;;;21.92;63.49;101576.78;6061067;23;20074;-72
2021/09/06 04:46:16;;;;;;;17.73;15.05;;;;;;;21.93;63.70;101574.88;6059006;23;20090;-72
2021/09/06 04:48:42;;;;;;;20.02;15.27;;;;;;;21.93;63.46;101583.06;6035841;23;20058;-72
2021/09/06 04:51:08;;;;;;;20.90;15.73;;;;;;;21.91;63.73;101577.00;6036390;23;20551;-72
2021/09/06 04:53:33;;;;;;;18.90;16.00;;;;;;;21.92;63.66;101579.50;6011410;23;20070;-72
2021/09/06 04:55:59;;;;;;;20.40;15.18;;;;;;;21.91;63.46;101579.72;6061415;23;20401;-72
2021/09/06 04:58:24;;;;;;;19.65;15.45;;;;;;;21.92;63.67;101585.00;6035936;23;20135;-72
2021/09/06 05:00:50;;;;;;;18.95;15.30;;;;;;;21.92;63.48;101590.47;6010800;23;20377;-72
2021/09/06 05:03:15;;;;;;;22.42;15.35;;;;;;;21.92;63.58;101590.47;6059597;23;20425;-72
2021/09/06 05:05:41;;;;;;;19.50;15.40;;;;;;;21.92;63.86;101595.94;6034864;23;20011;-72
2021/09/06 05:08:07;;;;;;;16.25;13.82;;;;;;;21.92;63.38;101587.72;6035057;23;20034;-72
2021/09/06 05:10:32;;;;;;;17.00;13.98;;;;;;;21.91;63.56;101586.06;6057199;23;20034;-72
2021/09/06 05:12:58;;;;;;;16.83;13.65;;;;;;;21.92;63.81;101587.72;6057506;23;20070;-72
2021/09/06 05:15:24;;;;;;;17.85;15.00;;;;;;;21.89;63.51;101585.44;6058340;23;20141;-72
2021/09/06 05:17:49;;;;;;;17.85;15.60;;;;;;;21.92;63.42;101593.19;6035288;23;20003;-72
2021/09/06 05:20:15;;;;;;;16.90;14.43;;;;;;;21.89;63.63;101593.66;6061053;23;20100;-72
2021/09/06 05:22:41;;;;;;;17.63;13.68;;;;;;;21.91;63.67;101596.16;6061313;23;20061;-72
2021/09/06 05:25:07;;;;;;;16.33;13.60;;;;;;;21.91;63.66;101597.00;6035727;23;20444;-72
2021/09/06 05:27:33;;;;;;;19.05;14.68;;;;;;;21.89;63.24;101592.84;6060498;23;20086;-72
2021/09/06 05:29:58;;;;;;;18.67;14.02;;;;;;;21.90;63.26;101600.81;6059373;23;20086;-73
2021/09/06 05:32:24;;;;;;;17.67;14.25;;;;;;;21.92;63.27;101606.06;6060965;23;20010;-72
2021/09/06 05:34:50;;;;;;;16.40;14.02;;;;;;;21.91;63.36;101615.31;6060338;23;20007;-72
2021/09/06 05:37:16;;;;;;;18.95;13.63;;;;;;;21.91;63.70;101609.84;6059689;23;20006;-72
2021/09/06 05:39:41;;;;;;;17.75;13.90;;;;;;;21.90;63.75;101625.44;6034977;23;20421;-72
2021/09/06 05:42:07;;;;;;;16.95;13.70;;;;;;;21.90;63.61;101622.72;6059918;23;20007;-72
2021/09/06 05:44:33;;;;;;;18.00;13.38;;;;;;;21.90;63.57;101625.44;6035181;23;20006;-72
2021/09/06 05:47:00;;;;;;;15.52;12.85;;;;;;;21.87;63.35;101625.91;6060797;23;20010;-72
2021/09/06 05:49:25;;;;;;;15.60;13.15;;;;;;;21.91;63.64;101629.00;6033760;23;20134;-73
2021/09/06 05:51:51;;;;;;;15.02;12.52;;;;;;;21.89;63.42;101632.00;6059258;23;20069;-72
2021/09/06 05:54:17;;;;;;;18.02;13.63;;;;;;;21.85;63.31;101633.50;6035016;23;20014;-74
2021/09/06 05:56:43;;;;;;;17.45;13.25;;;;;;;21.90;63.31;101641.03;6058486;23;20433;-72
2021/09/06 05:59:09;;;;;;;16.25;13.48;;;;;;;21.87;63.52;101631.38;6034391;23;20032;-72
2021/09/06 06:01:34;;;;;;;18.10;13.63;;;;;;;21.90;63.71;101638.31;6060026;23;20007;-71
2021/09/06 06:04:00;;;;;;;15.75;12.63;;;;;;;21.88;63.39;101633.03;6034432;23;20006;-72
2021/09/06 06:06:25;;;;;;;17.05;12.43;;;;;;;21.91;63.69;101639.97;6033992;23;20038;-72
2021/09/06 06:08:51;;;;;;;14.70;12.25;;;;;;;21.89;63.60;101637.47;6059935;23;20013;-71
2021/09/06 06:11:16;;;;;;;16.10;12.55;;;;;;;21.91;63.38;101643.56;6059607;23;20393;-71
2021/09/06 06:13:42;;;;;;;16.25;12.80;;;;;;;21.91;63.61;101638.09;6058942;23;20094;-73
2021/09/06 06:16:07;;;;;;;18.23;12.23;;;;;;;21.92;63.68;101645.22;6056484;23;20014;-72
2021/09/06 06:18:33;;;;;;;14.60;10.45;;;;;;;21.91;63.40;101648.19;6058951;23;20009;-72
2021/09/06 06:20:59;;;;;;;14.93;11.30;;;;;;;21.90;63.22;101646.53;6010033;23;20010;-72
2021/09/06 06:23:25;;;;;;;15.93;11.85;;;;;;;21.90;63.42;101641.88;6057885;23;20415;-72
2021/09/06 06:25:50;;;;;;;15.35;11.70;;;;;;;21.92;63.64;101641.66;6059169;23;20010;-72
2021/09/06 06:28:16;;;;;;;14.68;10.88;;;;;;;21.91;63.62;101646.31;6031306;23;20379;-72
2021/09/06 06:30:42;;;;;;;14.38;11.07;;;;;;;21.92;63.39;101639.75;6032711;23;20409;-72
2021/09/06 06:33:07;;;;;;;16.50;11.50;;;;;;;21.93;63.75;101646.88;6034861;23;20078;-72
2021/09/06 06:35:33;;;;;;;15.32;11.52;;;;;;;21.93;63.38;101646.06;6032722;23;20038;-72
2021/09/06 06:37:58;;;;;;;16.02;11.32;;;;;;;21.94;63.41;101653.22;6058324;23;20014;-72
2021/09/06 06:40:24;;;;;;;12.63;11.02;;;;;;;21.94;63.45;101655.97;6060564;23;20102;-72
2021/09/06 06:42:49;;;;;;;15.45;10.77;;;;;;;21.93;63.47;101655.09;6060085;23;20086;-72
2021/09/06 06:45:15;;;;;;;13.88;10.68;;;;;;;21.92;63.32;101656.19;6061318;23;20119;-73
2021/09/06 06:47:41;;;;;;;16.55;10.93;;;;;;;21.94;63.65;101664.16;6060532;23;20444;-72
2021/09/06 06:50:06;;;;;;;13.95;10.82;;;;;;;21.94;63.69;101664.16;6059649;23;20014;-72
2021/09/06 06:52:32;;;;;;;19.90;11.55;;;;;;;21.94;63.81;101665.00;6061453;23;20015;-72
2021/09/06 06:54:58;;;;;;;19.38;10.52;;;;;;;21.92;63.80;101658.91;6035977;23;20010;-73
2021/09/06 06:57:23;;;;;;;19.60;10.70;;;;;;;21.94;63.80;101670.47;6035592;23;20110;-72
2021/09/06 06:59:49;;;;;;;19.20;11.63;;;;;;;21.94;63.74;101675.97;6059812;23;20006;-73
2021/09/06 07:02:15;;;;;;;18.38;11.27;;;;;;;21.94;63.73;101670.47;6060788;23;20007;-72
2021/09/06 07:04:40;;;;;;;13.93;11.30;;;;;;;21.96;64.07;101672.97;6011366;23;20022;-72
2021/09/06 07:07:06;;;;;;;16.90;10.88;;;;;;;21.97;64.13;101679.31;6059579;23;20010;-72
2021/09/06 07:09:31;;;;;;;14.27;10.65;;;;;;;21.99;64.10;101688.09;6061517;23;20011;-72
2021/09/06 07:12:00;;;;;;;15.23;10.75;;;;;;;22.01;63.94;101694.19;6060536;23;20034;-72
2021/09/06 07:14:26;;;;;;;17.58;10.95;;;;;;;22.04;63.64;101691.00;6036829;23;20451;-71
2021/09/06 07:16:51;;;;;;;15.40;10.52;;;;;;;22.15;63.38;101698.47;6035471;23;20009;-71
2021/09/06 07:19:17;;;;;;;17.15;10.95;;;;;;;22.27;63.13;101690.31;6059378;23;19999;-72
2021/09/06 07:21:43;;;;;;;15.70;10.45;;;;;;;22.41;62.51;101696.44;6058626;23;20050;-72
2021/09/06 07:24:08;;;;;;;17.45;10.27;;;;;;;22.48;62.31;101698.03;6059234;23;20039;-72
2021/09/06 07:26:34;;;;;;;16.00;10.73;;;;;;;22.66;61.63;101710.03;6036047;23;20015;-72
2021/09/06 07:29:00;;;;;;;14.32;10.07;;;;;;;22.68;61.41;101703.25;6009150;23;20014;-72
2021/09/06 07:31:25;;;;;;;16.02;11.05;;;;;;;22.67;61.17;101700.72;6011080;23;20102;-72
2021/09/06 07:33:51;;;;;;;16.20;10.00;;;;;;;22.67;61.22;101709.78;6036308;23;20006;-72
2021/09/06 07:36:17;;;;;;;15.82;10.60;;;;;;;22.64;61.35;101710.25;6035722;23;20082;-72
2021/09/06 07:38:42;;;;;;;16.40;10.40;;;;;;;22.63;61.43;101713.25;6060843;23;20543;-72
2021/09/06 07:41:08;;;;;;;15.75;10.63;;;;;;;22.57;61.47;101717.72;6062099;23;20111;-72
2021/09/06 07:43:34;;;;;;;14.50;10.10;;;;;;;22.56;61.99;101714.16;6035823;23;20018;-73
2021/09/06 07:45:59;;;;;;;13.80;10.52;;;;;;;22.58;62.06;101722.16;6061870;23;20015;-72
2021/09/06 07:48:25;;;;;;;16.45;10.60;;;;;;;22.57;62.02;101728.69;6035530;23;20011;-72
2021/09/06 07:50:50;;;;;;;14.40;10.00;;;;;;;22.59;61.83;101726.56;6059663;23;20057;-72
2021/09/06 07:53:16;;;;;;;18.38;11.65;;;;;;;22.77;61.81;101729.25;6034133;23;20437;-72
2021/09/06 07:55:43;;;;;;;17.67;11.48;;;;;;;22.83;61.48;101730.22;6010432;23;20003;-72
2021/09/06 07:58:09;;;;;;;20.23;11.45;;;;;;;22.82;61.54;101729.38;6061591;23;20011;-71
2021/09/06 08:00:35;;;;;;;17.40;10.35;;;;;;;22.79;61.50;101735.34;6034064;23;20007;-72
2021/09/06 08:03:00;;;;;;;16.55;11.45;;;;;;;22.73;61.56;101730.81;6034864;23;20014;-72
2021/09/06 08:05:29;;;;;;;18.75;11.13;;;;;;;22.70;61.55;101742.22;6036148;23;20061;-72
2021/09/06 08:07:56;;;;;;;18.05;11.73;;;;;;;22.65;61.59;101736.63;6037100;23;20079;-71
2021/09/06 08:10:22;;;;;;;16.65;10.75;;;;;;;22.64;62.03;101740.41;6036139;23;20034;-72
2021/09/06 08:12:48;;;;;;;17.75;10.88;;;;;;;22.60;62.18;101723.59;6036872;23;20006;-72
2021/09/06 08:15:14;;;;;;;16.42;11.23;;;;;;;22.65;61.80;101730.28;6061487;23;20458;-72
2021/09/06 08:17:40;;;;;;;16.83;10.65;;;;;;;22.60;61.87;101734.56;6036025;23;20014;-71
2021/09/06 08:20:09;;;;;;;15.60;11.00;;;;;;;22.57;62.21;101729.53;6035300;23;20030;-72
2021/09/06 08:22:34;;;;;;;18.77;11.18;;;;;;;22.57;62.11;101731.44;6061557;23;20338;-72
2021/09/06 08:25:02;;;;;;;21.20;11.02;;;;;;;22.52;62.16;101726.66;6061401;23;20493;-72
2021/09/06 08:27:27;;;;;;;19.55;11.30;;;;;;;22.52;62.35;101731.28;6061690;23;20003;-71
2021/09/06 08:29:53;;;;;;;23.00;11.98;;;;;;;22.50;62.59;101736.19;6011776;23;20090;-72
2021/09/06 08:32:18;;;;;;;18.50;10.95;;;;;;;22.47;62.67;101731.16;6036108;23;20389;-72
2021/09/06 08:34:44;;;;;;;15.57;11.13;;;;;;;22.47;62.80;101729.25;6035652;23;20011;-72
2021/09/06 08:37:10;;;;;;;17.83;10.60;;;;;;;22.45;62.56;101739.63;6061268;23;20003;-72
2021/09/06 08:39:37;;;;;;;16.60;11.18;;;;;;;22.46;62.76;101738.53;6035558;23;20552;-71
2021/09/06 08:42:03;;;;;;;17.23;10.63;;;;;;;22.47;62.45;101744.88;6036038;23;20002;-72
2021/09/06 08:44:29;;;;;;;19.38;11.77;;;;;;;22.44;62.51;101740.69;6035350;23;20095;-71
2021/09/06 08:46:54;;;;;;;15.30;10.88;;;;;;;22.43;62.85;101749.13;6011936;23;20023;-71
2021/09/06 08:49:21;;;;;;;17.85;10.75;;;;;;;22.43;62.86;101744.47;6035644;23;20007;-71
2021/09/06 08:51:47;;;;;;;20.60;11.20;;;;;;;22.42;62.96;101755.69;6035986;23;20456;-72
2021/09/06 08:54:13;;;;;;;17.15;11.77;;;;;;;22.41;62.83;101752.09;6035641;23;20842;-71
2021/09/06 08:56:39;;;;;;;19.80;10.07;;;;;;;22.39;62.81;101752.34;6035727;23;20034;-71
2021/09/06 08:59:05;;;;;;;19.02;11.70;;;;;;;22.38;63.08;101764.34;6060239;23;20046;-72
2021/09/06 09:01:39;;;;;;;16.90;11.48;;;;;;;22.38;62.92;101767.09;6034636;23;20003;-72
2021/09/06 09:04:28;;;;;;;16.02;10.38;;;;;;;22.38;62.96;101769.00;6060776;23;20431;-72
2021/09/06 09:06:59;;;;;;;16.65;10.45;;;;;;;22.38;63.11;101769.81;6060574;23;20050;-72
2021/09/06 09:09:25;;;;;;;25.23;11.70;;;;;;;22.38;63.14;101767.09;6035388;23;20626;-72
2021/09/06 09:12:16;;;;;;;22.25;11.00;;;;;;;22.37;63.21;101762.69;6061225;23;20065;-72
2021/09/06 09:14:47;;;;;;;19.90;10.80;;;;;;;22.39;63.31;101767.94;6060591;23;20003;-72
2021/09/06 09:17:13;;;;;;;514.17;81.88;;;;;;;22.38;63.08;101764.34;6035370;23;20018;-71
2021/09/06 09:19:39;;;;;;;16.85;11.30;;;;;;;22.38;63.30;101764.34;6060811;23;20006;-72
2021/09/06 09:22:07;;;;;;;14.52;10.05;;;;;;;22.38;63.21;101764.34;6060958;23;20006;-72
2021/09/06 09:24:37;;;;;;;17.33;10.70;;;;;;;22.39;63.08;101759.72;6060519;23;20302;-72
2021/09/06 09:27:08;;;;;;;15.35;9.98;;;;;;;22.38;63.20;101769.81;6061429;23;20007;-72
2021/09/06 09:29:34;;;;;;;17.85;10.27;;;;;;;22.38;62.95;101766.25;6035073;23;20014;-71
2021/09/06 09:32:11;;;;;;;16.55;10.45;;;;;;;22.38;62.87;101772.56;6060962;23;20457;-71
2021/09/06 09:34:42;;;;;;;16.77;10.90;;;;;;;22.39;62.83;101776.16;6060936;23;20013;-71
2021/09/06 09:37:08;;;;;;;17.23;9.95;;;;;;;22.39;62.72;101768.78;6034162;23;20389;-72
2021/09/06 09:39:34;;;;;;;16.33;10.23;;;;;;;22.38;62.86;101769.81;6034704;23;20425;-72
2021/09/06 09:42:09;;;;;;;18.52;10.70;;;;;;;22.39;62.66;101771.53;6061191;23;20464;-72
2021/09/06 09:44:46;;;;;;;17.23;10.05;;;;;;;22.40;62.77;101772.34;6035724;23;20077;-72
2021/09/06 09:47:11;;;;;;;15.45;10.02;;;;;;;22.40;63.00;101772.34;6060717;23;20010;-72
2021/09/06 09:49:38;;;;;;;16.08;10.27;;;;;;;22.41;62.63;101763.06;6060754;23;20042;-72
2021/09/06 09:52:05;;;;;;;14.43;9.60;;;;;;;22.45;62.83;101766.19;6035830;23;20711;-72
2021/09/06 09:54:31;;;;;;;15.15;9.75;;;;;;;22.48;62.59;101762.97;6060963;23;20021;-72
2021/09/06 09:56:57;;;;;;;18.30;10.20;;;;;;;22.50;62.71;101769.91;6060827;23;20007;-72
2021/09/06 09:59:22;;;;;;;14.90;10.02;;;;;;;22.52;62.43;101769.66;6035328;23;19999;-72
2021/09/06 10:02:07;;;;;;;16.95;10.32;;;;;;;22.51;62.36;101779.78;6011971;23;20002;-72
2021/09/06 10:04:49;;;;;;;15.40;10.05;;;;;;;22.51;62.69;101778.97;6060881;23;20011;-72
2021/09/06 10:07:15;;;;;;;;;;;;;;;22.52;62.34;101776.00;6036396;23;20010;-72
2021/09/06 10:09:45;;;;;;;19.45;10.68;;;;;;;22.52;62.35;101769.66;6060664;23;19916;-73
2021/09/06 10:12:17;;;;;;;18.10;10.35;;;;;;;22.52;62.30;101775.13;6035650;23;20035;-71
2021/09/06 10:14:54;;;;;;;17.58;9.77;;;;;;;22.51;62.77;101773.47;6035424;23;20023;-71
2021/09/06 10:17:34;;;;;;;17.77;9.65;;;;;;;22.52;62.48;101780.63;6060830;23;20082;-71
2021/09/06 10:20:04;;;;;;;14.88;9.85;;;;;;;22.55;62.58;101774.69;6035594;23;20005;-71
2021/09/06 10:22:30;;;;;;;16.10;10.43;;;;;;;22.60;62.57;101777.59;6060738;23;20090;-71
2021/09/06 10:25:00;;;;;;;15.43;10.38;;;;;;;22.63;62.26;101776.28;6060360;23;20089;-71
2021/09/06 10:27:27;;;;;;;14.70;9.18;;;;;;;22.63;62.52;101770.81;6060563;23;20003;-71
2021/09/06 10:29:59;;;;;;;17.10;9.93;;;;;;;22.65;62.31;101775.00;6010406;23;20310;-71
2021/09/06 10:32:46;;;;;;;15.73;9.35;;;;;;;22.66;62.46;101765.69;6035528;23;20433;-71
2021/09/06 10:35:18;;;;;;;14.88;9.40;;;;;;;22.70;62.30;101775.09;6059856;23;20053;-71
2021/09/06 10:37:46;;;;;;;14.27;9.68;;;;;;;22.70;62.09;101777.00;6035578;23;20037;-71
2021/09/06 10:40:14;;;;;;;15.73;9.60;;;;;;;22.70;62.16;101777.84;6035714;23;20002;-71
2021/09/06 10:42:41;;;;;;;14.48;8.93;;;;;;;22.71;62.28;101770.47;6035260;23;20034;-71
2021/09/06 10:45:08;;;;;;;16.17;9.98;;;;;;;22.71;62.19;101770.47;6060381;23;20011;-71
2021/09/06 10:47:36;;;;;;;14.60;9.20;;;;;;;22.69;62.31;101770.69;6035284;23;20117;-71
2021/09/06 10:50:18;;;;;;;15.70;9.23;;;;;;;22.71;62.12;101773.22;6035284;23;20013;-71
2021/09/06 10:52:48;;;;;;;16.17;8.90;;;;;;;22.70;62.20;101780.59;6035141;23;20022;-71
2021/09/06 10:55:15;;;;;;;16.00;9.15;;;;;;;22.71;62.04;101779.53;6035525;23;20082;-71
2021/09/06 10:57:42;;;;;;;14.88;9.35;;;;;;;22.75;62.05;101779.91;6060422;23;20007;-71
2021/09/06 11:00:14;;;;;;;15.27;9.57;;;;;;;22.77;62.54;101783.25;6035258;23;20029;-71
2021/09/06 11:02:41;;;;;;;15.13;9.25;;;;;;;22.78;62.28;101785.78;6035645;23;20002;-72
2021/09/06 11:05:07;;;;;;;15.50;9.98;;;;;;;22.76;62.10;101784.34;6034890;23;20495;-72
2021/09/06 11:07:33;;;;;;;14.60;9.35;;;;;;;22.77;62.02;101784.09;6035652;23;20421;-71